createdAt,value
2023-02-19T00:00:58.207Z,3.78
2023-02-19T00:03:25.236Z,3.33
2023-02-19T00:05:52.190Z,4.13
2023-02-19T00:08:19.288Z,3.85
2023-02-19T00:10:46.228Z,3.95
2023-02-19T00:13:15.066Z,4.57
2023-02-19T00:15:42.084Z,4.20
2023-02-19T00:18:09.076Z,3.97
2023-02-19T00:20:35.932Z,4.40
2023-02-19T00:23:02.938Z,4.45
2023-02-19T00:25:29.844Z,4.60
2023-02-19T00:27:56.777Z,5.25
2023-02-19T00:30:24.862Z,4.07
2023-02-19T00:32:51.973Z,4.43
2023-02-19T00:35:19.028Z,4.13
2023-02-19T00:37:46.101Z,4.75
2023-02-19T00:40:13.019Z,4.10
2023-02-19T00:42:39.950Z,4.80
2023-02-19T00:45:08.016Z,4.15
2023-02-19T00:47:34.968Z,4.10
2023-02-19T00:50:01.886Z,4.05
2023-02-19T00:52:29.480Z,4.72
2023-02-19T00:54:56.382Z,4.63
2023-02-19T00:57:23.455Z,4.30
2023-02-19T00:59:50.405Z,4.35
2023-02-19T01:02:17.329Z,4.43
2023-02-19T01:04:44.312Z,3.88
2023-02-19T01:07:11.370Z,3.60
2023-02-19T01:09:38.534Z,4.03
2023-02-19T01:12:06.328Z,4.38
2023-02-19T01:14:33.340Z,4.03
2023-02-19T01:17:00.258Z,4.15
2023-02-19T01:19:27.207Z,4.20
2023-02-19T01:21:54.511Z,4.13
2023-02-19T01:24:21.437Z,4.15
2023-02-19T01:26:48.355Z,4.20
2023-02-19T01:29:15.410Z,4.28
2023-02-19T01:31:42.488Z,4.05
2023-02-19T01:34:10.496Z,4.25
2023-02-19T01:36:37.778Z,3.88
2023-02-19T01:39:07.212Z,4.70
2023-02-19T01:41:39.570Z,4.45
2023-02-19T01:44:12.732Z,4.40
2023-02-19T01:46:40.882Z,4.40
2023-02-19T01:49:13.920Z,3.78
2023-02-19T01:51:45.008Z,3.97
2023-02-19T01:54:12.665Z,4.10
2023-02-19T01:56:40.511Z,4.32
2023-02-19T01:59:07.620Z,4.05
2023-02-19T02:01:36.526Z,4.68
2023-02-19T02:04:03.497Z,5.07
2023-02-19T02:06:52.404Z,4.43
2023-02-19T02:09:39.257Z,4.15
2023-02-19T02:12:07.016Z,4.45
2023-02-19T02:14:36.198Z,4.60
2023-02-19T02:17:12.000Z,4.82
2023-02-19T02:19:42.044Z,4.43
2023-02-19T02:22:37.887Z,4.40
2023-02-19T02:25:32.693Z,4.85
2023-02-19T02:28:33.537Z,5.03
2023-02-19T02:31:04.644Z,5.07
2023-02-19T02:33:45.925Z,4.40
2023-02-19T02:36:18.727Z,4.72
2023-02-19T02:38:46.392Z,4.63
2023-02-19T02:41:13.951Z,4.32
2023-02-19T02:43:40.917Z,5.07
2023-02-19T02:46:13.405Z,4.30
2023-02-19T02:48:54.170Z,4.60
2023-02-19T02:51:29.447Z,4.53
2023-02-19T02:54:33.884Z,4.18
2023-02-19T02:57:06.082Z,4.35
2023-02-19T02:59:38.674Z,4.40
2023-02-19T03:02:18.992Z,4.65
2023-02-19T03:05:15.507Z,4.68
2023-02-19T03:07:47.355Z,4.60
2023-02-19T03:10:23.643Z,4.18
2023-02-19T03:13:09.482Z,4.22
2023-02-19T03:16:01.655Z,4.55
2023-02-19T03:21:14.459Z,4.35
2023-02-19T03:23:59.766Z,4.22
2023-02-19T03:26:26.674Z,4.32
2023-02-19T03:29:12.849Z,4.00
2023-02-19T03:31:42.743Z,4.18
2023-02-19T03:34:12.345Z,4.07
2023-02-19T03:36:48.444Z,4.00
2023-02-19T03:39:17.406Z,4.07
2023-02-19T03:42:06.039Z,3.60
2023-02-19T03:45:03.420Z,3.88
2023-02-19T03:47:35.675Z,4.13
2023-02-19T03:50:21.294Z,3.92
2023-02-19T03:53:04.336Z,3.67
2023-02-19T03:55:42.606Z,3.80
2023-02-19T03:58:17.175Z,4.10
2023-02-19T04:00:55.428Z,3.20
2023-02-19T04:03:41.239Z,3.70
2023-02-19T04:06:14.410Z,3.50
2023-02-19T04:08:42.940Z,3.55
2023-02-19T04:11:10.343Z,3.90
2023-02-19T04:13:52.304Z,3.53
2023-02-19T04:16:21.987Z,3.38
2023-02-19T04:18:52.291Z,3.78
2023-02-19T04:21:19.791Z,3.55
2023-02-19T04:23:46.763Z,3.63
2023-02-19T04:26:13.888Z,3.60
2023-02-19T04:28:41.106Z,3.60
2023-02-19T04:31:08.133Z,3.78
2023-02-19T04:33:35.160Z,3.30
2023-02-19T04:36:02.056Z,3.10
2023-02-19T04:38:28.956Z,3.60
2023-02-19T04:40:55.899Z,3.78
2023-02-19T04:43:22.812Z,3.22
2023-02-19T04:45:49.738Z,3.63
2023-02-19T04:48:16.894Z,3.30
2023-02-19T04:50:46.670Z,3.00
2023-02-19T04:53:13.613Z,3.15
2023-02-19T04:55:40.708Z,3.03
2023-02-19T04:58:07.581Z,2.80
2023-02-19T05:00:34.570Z,3.13
2023-02-19T05:03:01.578Z,2.90
2023-02-19T05:05:28.578Z,2.90
2023-02-19T05:07:55.651Z,2.53
2023-02-19T05:10:22.600Z,2.92
2023-02-19T05:12:49.497Z,2.65
2023-02-19T05:15:16.527Z,2.88
2023-02-19T05:17:43.463Z,2.72
2023-02-19T05:20:10.721Z,2.50
2023-02-19T05:22:37.631Z,3.00
2023-02-19T05:25:06.643Z,2.50
2023-02-19T05:27:33.604Z,2.55
2023-02-19T05:30:03.303Z,3.00
2023-02-19T05:32:30.284Z,2.75
2023-02-19T05:34:57.156Z,2.88
2023-02-19T05:37:24.304Z,2.25
2023-02-19T05:39:51.354Z,2.78
2023-02-19T05:42:18.234Z,2.60
2023-02-19T05:44:45.189Z,2.95
2023-02-19T05:47:12.046Z,2.60
2023-02-19T05:49:38.996Z,2.63
2023-02-19T05:52:05.926Z,2.80
2023-02-19T05:54:32.848Z,2.63
2023-02-19T05:56:59.781Z,2.50
2023-02-19T05:59:26.961Z,2.60
2023-02-19T06:01:54.320Z,2.72
2023-02-19T06:04:21.611Z,2.40
2023-02-19T06:06:48.619Z,2.60
2023-02-19T06:09:15.527Z,2.45
2023-02-19T06:11:43.640Z,2.75
2023-02-19T06:14:12.630Z,3.22
2023-02-19T06:16:39.821Z,2.70
2023-02-19T06:19:06.876Z,2.78
2023-02-19T06:21:33.804Z,2.58
2023-02-19T06:24:05.657Z,2.80
2023-02-19T06:26:32.601Z,2.40
2023-02-19T06:28:59.797Z,3.15
2023-02-19T06:31:26.825Z,2.50
2023-02-19T06:33:55.109Z,2.90
2023-02-19T06:36:22.706Z,2.88
2023-02-19T06:38:49.826Z,2.50
2023-02-19T06:41:16.915Z,2.70
2023-02-19T06:43:43.893Z,2.85
2023-02-19T06:46:11.245Z,2.40
2023-02-19T06:48:39.074Z,2.67
2023-02-19T06:51:06.065Z,2.83
2023-02-19T06:53:32.955Z,3.30
2023-02-19T06:56:05.013Z,2.80
2023-02-19T06:58:32.269Z,2.83
2023-02-19T07:00:59.344Z,2.90
2023-02-19T07:03:26.602Z,3.17
2023-02-19T07:05:53.611Z,2.17
2023-02-19T07:08:20.609Z,2.22
2023-02-19T07:10:57.215Z,2.50
2023-02-19T07:13:27.343Z,2.65
2023-02-19T07:16:20.624Z,2.50
2023-02-19T07:18:47.714Z,2.80
2023-02-19T07:21:14.971Z,2.67
2023-02-19T07:23:42.032Z,2.88
2023-02-19T07:26:09.911Z,2.67
2023-02-19T07:28:36.868Z,2.60
2023-02-19T07:31:04.192Z,2.75
2023-02-19T07:33:31.150Z,3.25
2023-02-19T07:35:58.108Z,2.53
2023-02-19T07:38:25.417Z,3.03
2023-02-19T07:41:01.045Z,2.60
2023-02-19T07:43:31.373Z,2.50
2023-02-19T07:45:58.309Z,2.65
2023-02-19T07:48:25.282Z,2.55
2023-02-19T07:50:56.114Z,2.42
2023-02-19T07:53:23.295Z,2.40
2023-02-19T07:55:50.209Z,2.50
2023-02-19T07:58:17.195Z,2.80
2023-02-19T08:00:44.125Z,2.30
2023-02-19T08:03:11.246Z,2.60
2023-02-19T08:05:39.042Z,2.55
2023-02-19T08:08:09.887Z,2.30
2023-02-19T08:10:55.211Z,2.63
2023-02-19T08:13:28.261Z,2.90
2023-02-19T08:16:16.883Z,3.03
2023-02-19T08:18:44.597Z,2.50
2023-02-19T08:21:11.986Z,2.45
2023-02-19T08:23:39.398Z,2.60
2023-02-19T08:26:06.464Z,2.47
2023-02-19T08:28:33.501Z,2.60
2023-02-19T08:31:07.331Z,2.53
2023-02-19T08:33:34.710Z,2.40
2023-02-19T08:36:04.773Z,2.63
2023-02-19T08:38:35.955Z,2.80
2023-02-19T08:41:10.900Z,2.55
2023-02-19T08:43:38.016Z,2.30
2023-02-19T08:46:06.606Z,2.70
2023-02-19T08:48:33.741Z,2.47
2023-02-19T08:51:03.912Z,2.65
2023-02-19T08:53:34.450Z,2.50
2023-02-19T08:56:05.768Z,2.35
2023-02-19T08:58:33.146Z,2.55
2023-02-19T09:01:00.244Z,2.35
2023-02-19T09:03:27.188Z,2.50
2023-02-19T09:05:54.107Z,2.60
2023-02-19T09:08:21.016Z,2.30
2023-02-19T09:10:58.216Z,3.15
2023-02-19T09:13:25.282Z,2.65
2023-02-19T09:15:52.236Z,2.60
2023-02-19T09:18:19.154Z,2.70
2023-02-19T09:20:46.040Z,2.70
2023-02-19T09:23:12.974Z,2.22
2023-02-19T09:25:39.887Z,2.58
2023-02-19T09:28:06.846Z,2.30
2023-02-19T09:30:34.039Z,2.38
2023-02-19T09:33:01.000Z,2.00
2023-02-19T09:35:27.895Z,2.17
2023-02-19T09:37:54.805Z,1.90
2023-02-19T09:40:22.549Z,2.15
2023-02-19T09:42:49.537Z,1.77
2023-02-19T09:45:21.984Z,1.90
2023-02-19T09:47:48.956Z,1.80
2023-02-19T09:50:17.893Z,2.00
2023-02-19T09:52:58.607Z,2.17
2023-02-19T09:55:39.817Z,2.20
2023-02-19T09:58:28.141Z,1.98
2023-02-19T10:00:55.736Z,2.20
2023-02-19T10:03:33.719Z,2.65
2023-02-19T10:06:26.547Z,2.13
2023-02-19T10:09:15.082Z,1.90
2023-02-19T10:11:42.299Z,1.90
2023-02-19T10:14:13.951Z,1.67
2023-02-19T10:16:41.346Z,2.08
2023-02-19T10:19:12.460Z,1.83
2023-02-19T10:21:39.629Z,2.15
2023-02-19T10:24:06.896Z,1.70
2023-02-19T10:26:36.650Z,1.80
2023-02-19T10:29:04.366Z,2.17
2023-02-19T10:31:32.390Z,1.95
2023-02-19T10:34:02.047Z,2.10
2023-02-19T10:36:33.025Z,1.80
2023-02-19T10:39:00.902Z,2.00
2023-02-19T10:41:28.116Z,2.13
2023-02-19T10:44:15.922Z,1.92
2023-02-19T10:46:50.283Z,1.95
2023-02-19T10:49:20.085Z,1.77
2023-02-19T10:51:47.969Z,1.90
2023-02-19T10:54:25.411Z,1.80
2023-02-19T10:56:52.558Z,1.90
2023-02-19T10:59:19.466Z,1.80
2023-02-19T11:01:57.490Z,1.92
2023-02-19T11:04:26.031Z,1.83
2023-02-19T11:06:53.053Z,2.00
2023-02-19T11:09:30.440Z,1.90
2023-02-19T11:11:57.497Z,1.90
2023-02-19T11:17:33.393Z,1.70
2023-02-19T11:20:04.833Z,1.60
2023-02-19T11:22:38.705Z,1.88
2023-02-19T11:25:08.051Z,1.60
2023-02-19T11:27:35.039Z,1.48
2023-02-19T11:30:30.460Z,1.85
2023-02-19T11:33:02.955Z,1.80
2023-02-19T11:35:30.023Z,1.92
2023-02-19T11:38:01.001Z,1.65
2023-02-19T11:40:56.807Z,2.10
2023-02-19T11:43:44.028Z,2.10
2023-02-19T11:46:20.374Z,1.60
2023-02-19T11:49:03.420Z,1.80
2023-02-19T11:51:36.293Z,1.70
2023-02-19T11:54:34.054Z,1.60
2023-02-19T11:57:16.218Z,2.13
2023-02-19T12:00:01.886Z,1.42
2023-02-19T12:02:59.691Z,1.40
2023-02-19T12:05:44.643Z,1.55
2023-02-19T12:08:49.874Z,1.70
2023-02-19T12:11:28.629Z,1.30
2023-02-19T12:14:19.751Z,1.40
2023-02-19T12:17:01.942Z,1.80
2023-02-19T12:19:39.366Z,1.58
2023-02-19T12:22:42.040Z,1.60
2023-02-19T12:25:23.764Z,1.50
2023-02-19T12:28:32.630Z,1.50
2023-02-19T12:31:36.686Z,1.45
2023-02-19T12:34:06.641Z,1.58
2023-02-19T12:36:50.931Z,1.50
2023-02-19T12:39:34.234Z,1.55
2023-02-19T12:42:13.194Z,1.45
2023-02-19T12:45:00.311Z,1.70
2023-02-19T12:47:39.408Z,1.40
2023-02-19T12:50:34.936Z,1.65
2023-02-19T12:53:22.120Z,1.40
2023-02-19T12:55:49.184Z,1.70
2023-02-19T12:58:24.494Z,1.60
2023-02-19T13:00:54.060Z,1.60
2023-02-19T13:03:33.377Z,1.58
2023-02-19T13:06:25.851Z,1.55
2023-02-19T13:09:13.989Z,1.58
2023-02-19T13:11:43.252Z,1.60
2023-02-19T13:14:16.593Z,1.60
2023-02-19T13:16:46.911Z,1.80
2023-02-19T13:19:15.220Z,1.80
2023-02-19T13:22:00.947Z,1.67
2023-02-19T13:24:39.108Z,1.67
2023-02-19T13:27:14.481Z,1.77
2023-02-19T13:30:06.055Z,1.63
2023-02-19T13:33:00.464Z,1.80
2023-02-19T13:35:55.173Z,1.77
2023-02-19T13:38:22.303Z,1.60
2023-02-19T13:40:59.269Z,1.60
2023-02-19T13:43:27.362Z,1.70
2023-02-19T13:45:59.604Z,1.90
2023-02-19T13:48:29.305Z,1.80
2023-02-19T13:51:24.397Z,1.95
2023-02-19T13:53:58.205Z,2.78
2023-02-19T13:56:34.287Z,2.10
2023-02-19T13:59:24.242Z,1.90
2023-02-19T14:01:54.053Z,1.80
2023-02-19T14:04:41.123Z,2.03
2023-02-19T14:07:08.109Z,1.92
2023-02-19T14:09:39.344Z,2.13
2023-02-19T14:12:16.221Z,2.10
2023-02-19T14:14:55.963Z,2.15
2023-02-19T14:17:34.930Z,2.03
2023-02-19T14:20:01.919Z,1.98
2023-02-19T14:22:47.391Z,1.90
2023-02-19T14:25:46.048Z,2.17
2023-02-19T14:28:40.118Z,2.35
2023-02-19T14:31:21.308Z,2.25
2023-02-19T14:34:07.717Z,2.30
2023-02-19T14:36:48.899Z,2.20
2023-02-19T14:39:37.741Z,2.00
2023-02-19T14:42:37.279Z,1.92
2023-02-19T14:45:06.173Z,2.33
2023-02-19T14:47:35.073Z,2.00
2023-02-19T14:50:06.192Z,2.15
2023-02-19T14:52:41.060Z,1.98
2023-02-19T14:55:15.007Z,2.00
2023-02-19T14:57:43.430Z,1.83
2023-02-19T15:00:22.641Z,2.17
2023-02-19T15:02:55.601Z,2.30
2023-02-19T15:05:25.093Z,2.20
2023-02-19T15:07:53.499Z,2.20
2023-02-19T15:10:20.635Z,2.30
2023-02-19T15:13:01.554Z,2.30
2023-02-19T15:15:29.828Z,1.92
2023-02-19T15:17:57.218Z,2.20
2023-02-19T15:20:25.815Z,2.22
2023-02-19T15:22:53.219Z,2.10
2023-02-19T15:25:21.311Z,2.42
2023-02-19T15:27:48.280Z,2.22
2023-02-19T15:30:23.812Z,2.63
2023-02-19T15:32:55.142Z,2.35
2023-02-19T15:35:24.020Z,2.50
2023-02-19T15:37:51.289Z,2.75
2023-02-19T15:40:18.271Z,2.50
2023-02-19T15:42:45.864Z,2.42
2023-02-19T15:45:21.767Z,2.15
2023-02-19T15:48:19.438Z,2.50
2023-02-19T15:50:48.596Z,2.45
2023-02-19T15:53:18.346Z,2.22
2023-02-19T15:56:08.618Z,2.40
2023-02-19T15:58:51.660Z,2.80
2023-02-19T16:01:18.596Z,2.17
2023-02-19T16:03:45.525Z,2.70
2023-02-19T16:06:17.279Z,2.35
2023-02-19T16:11:39.914Z,2.40
2023-02-19T16:14:23.617Z,2.17
2023-02-19T16:17:10.808Z,2.20
2023-02-19T16:19:43.898Z,2.05
2023-02-19T16:22:11.844Z,2.30
2023-02-19T16:24:45.271Z,2.55
2023-02-19T16:27:30.634Z,2.13
2023-02-19T16:29:57.895Z,2.03
2023-02-19T16:32:25.134Z,2.28
2023-02-19T16:34:52.385Z,2.00
2023-02-19T16:37:37.701Z,2.10
2023-02-19T16:40:07.493Z,2.20
2023-02-19T16:42:44.665Z,2.00
2023-02-19T16:45:11.550Z,1.95
2023-02-19T16:47:41.354Z,2.10
2023-02-19T16:50:13.727Z,2.60
2023-02-19T16:52:57.282Z,2.50
2023-02-19T16:55:24.441Z,2.40
2023-02-19T16:57:51.472Z,2.33
2023-02-19T17:00:26.052Z,2.15
2023-02-19T17:02:59.040Z,2.22
2023-02-19T17:05:27.407Z,2.10
2023-02-19T17:07:54.387Z,2.45
2023-02-19T17:10:23.865Z,2.70
2023-02-19T17:12:51.672Z,2.70
2023-02-19T17:15:19.045Z,2.50
2023-02-19T17:17:46.004Z,3.00
2023-02-19T17:20:18.593Z,2.83
2023-02-19T17:22:45.519Z,3.28
2023-02-19T17:25:12.559Z,3.80
2023-02-19T17:27:43.002Z,3.75
2023-02-19T17:30:30.247Z,3.90
2023-02-19T17:32:57.372Z,4.50
2023-02-19T17:35:24.787Z,4.47
2023-02-19T17:37:53.368Z,4.57
2023-02-19T17:40:51.241Z,4.97
2023-02-19T17:43:18.205Z,4.32
2023-02-19T17:45:45.193Z,4.03
2023-02-19T17:48:18.391Z,3.70
2023-02-19T17:50:45.420Z,3.58
2023-02-19T17:53:12.409Z,3.65
2023-02-19T17:55:39.517Z,3.35
2023-02-19T17:58:06.539Z,3.92
2023-02-19T18:00:34.410Z,3.70
2023-02-19T18:03:01.572Z,3.42
2023-02-19T18:05:28.610Z,3.20
2023-02-19T18:07:55.603Z,3.45
2023-02-19T18:10:23.607Z,3.58
2023-02-19T18:12:50.667Z,3.40
2023-02-19T18:15:26.219Z,3.20
2023-02-19T18:17:54.030Z,4.30
2023-02-19T18:20:23.191Z,3.88
2023-02-19T18:22:50.200Z,4.93
2023-02-19T18:25:17.771Z,4.32
2023-02-19T18:27:44.802Z,5.00
2023-02-19T18:30:12.535Z,5.03
2023-02-19T18:32:39.449Z,4.97
2023-02-19T18:35:06.702Z,5.00
2023-02-19T18:37:34.216Z,5.13
2023-02-19T18:40:01.686Z,5.65
2023-02-19T18:42:28.717Z,5.40
2023-02-19T18:44:56.152Z,5.60
2023-02-19T18:47:25.234Z,5.68
2023-02-19T18:49:54.446Z,5.82
2023-02-19T18:52:22.255Z,5.55
2023-02-19T18:54:49.447Z,5.50
2023-02-19T18:57:16.406Z,5.65
2023-02-19T18:59:43.522Z,5.93
2023-02-19T19:02:10.542Z,5.57
2023-02-19T19:04:38.395Z,6.15
2023-02-19T19:07:05.750Z,5.47
2023-02-19T19:09:33.274Z,5.68
2023-02-19T19:12:00.662Z,5.30
2023-02-19T19:14:27.684Z,5.40
2023-02-19T19:16:54.705Z,5.30
2023-02-19T19:19:21.643Z,4.68
2023-02-19T19:21:53.438Z,4.85
2023-02-19T19:24:21.031Z,5.00
2023-02-19T19:26:48.267Z,4.43
2023-02-19T19:29:16.123Z,5.30
2023-02-19T19:31:43.218Z,4.63
2023-02-19T19:34:10.932Z,4.82
2023-02-19T19:36:37.996Z,4.75
2023-02-19T19:39:05.012Z,4.72
2023-02-19T19:41:32.089Z,5.18
2023-02-19T19:44:01.780Z,5.80
2023-02-19T19:46:28.721Z,5.63
2023-02-19T19:48:55.750Z,5.70
2023-02-19T19:51:22.696Z,5.55
2023-02-19T19:53:49.947Z,5.00
2023-02-19T19:56:17.772Z,6.45
2023-02-19T19:58:44.816Z,5.68
2023-02-19T20:01:12.081Z,6.28
2023-02-19T20:03:39.280Z,5.63
2023-02-19T20:06:06.507Z,5.68
2023-02-19T20:08:33.473Z,5.85
2023-02-19T20:11:00.439Z,5.90
2023-02-19T20:13:30.536Z,5.50
2023-02-19T20:15:57.888Z,5.78
2023-02-19T20:18:26.139Z,5.78
2023-02-19T20:20:53.271Z,5.10
2023-02-19T20:23:20.240Z,5.63
2023-02-19T20:25:47.280Z,5.80
2023-02-19T20:28:14.285Z,5.78
2023-02-19T20:30:42.139Z,5.32
2023-02-19T20:33:09.500Z,5.72
2023-02-19T20:35:36.568Z,5.50
2023-02-19T20:38:03.490Z,5.90
2023-02-19T20:40:31.428Z,5.75
2023-02-19T20:43:00.862Z,6.50
2023-02-19T20:45:28.520Z,6.07
2023-02-19T20:47:55.532Z,5.57
2023-02-19T20:50:23.338Z,6.10
2023-02-19T20:52:50.356Z,5.88
2023-02-19T20:55:17.414Z,6.00
2023-02-19T20:57:44.387Z,5.95
2023-02-19T21:00:11.840Z,5.20
2023-02-19T21:02:38.897Z,6.00
2023-02-19T21:05:06.151Z,5.30
2023-02-19T21:07:33.331Z,5.93
2023-02-19T21:10:00.286Z,5.55
2023-02-19T21:12:27.492Z,6.10
2023-02-19T21:14:54.385Z,5.35
2023-02-19T21:17:21.296Z,5.50
2023-02-19T21:19:50.121Z,5.43
2023-02-19T21:22:17.372Z,5.18
2023-02-19T21:24:44.822Z,5.53
2023-02-19T21:27:11.876Z,5.07
2023-02-19T21:29:38.944Z,5.13
2023-02-19T21:32:06.113Z,5.68
2023-02-19T21:34:33.155Z,4.80
2023-02-19T21:37:00.185Z,5.15
2023-02-19T21:39:27.707Z,5.07
2023-02-19T21:41:54.821Z,4.95
2023-02-19T21:44:21.823Z,4.75
2023-02-19T21:46:48.872Z,4.88
2023-02-19T21:49:15.965Z,4.90
2023-02-19T21:51:43.787Z,5.55
2023-02-19T21:54:19.072Z,4.47
2023-02-19T21:56:46.045Z,5.00
2023-02-19T21:59:13.097Z,4.90
2023-02-19T22:01:40.207Z,5.10
2023-02-19T22:04:07.372Z,5.50
2023-02-19T22:06:34.381Z,4.85
2023-02-19T22:09:01.523Z,5.43
2023-02-19T22:11:28.714Z,5.55
2023-02-19T22:13:55.731Z,5.55
2023-02-19T22:16:22.865Z,5.35
2023-02-19T22:18:53.924Z,5.13
2023-02-19T22:21:21.459Z,5.57
2023-02-19T22:23:50.111Z,5.30
2023-02-19T22:26:25.048Z,5.85
2023-02-19T22:28:52.366Z,5.72
2023-02-19T22:31:20.773Z,5.78
2023-02-19T22:33:47.950Z,5.35
2023-02-19T22:36:20.494Z,5.85
2023-02-19T22:38:47.674Z,5.18
2023-02-19T22:41:15.232Z,5.30
2023-02-19T22:43:42.228Z,5.40
2023-02-19T22:46:11.429Z,5.35
2023-02-19T22:48:38.692Z,5.70
2023-02-19T22:51:09.011Z,4.88
2023-02-19T22:53:36.071Z,5.13
2023-02-19T22:56:03.107Z,5.25
2023-02-19T22:58:30.055Z,5.03
2023-02-19T23:00:57.022Z,5.40
2023-02-19T23:03:23.955Z,4.78
2023-02-19T23:05:50.976Z,5.43
2023-02-19T23:08:17.950Z,4.90
2023-02-19T23:10:44.904Z,4.18
2023-02-19T23:13:11.818Z,4.05
2023-02-19T23:15:38.703Z,4.93
2023-02-19T23:18:06.349Z,4.50
2023-02-19T23:20:33.343Z,4.13
2023-02-19T23:23:00.472Z,3.97
2023-02-19T23:25:27.502Z,4.43
2023-02-19T23:27:54.445Z,4.38
2023-02-19T23:30:21.472Z,4.22
2023-02-19T23:32:48.445Z,4.30
2023-02-19T23:35:15.423Z,4.75
2023-02-19T23:37:42.356Z,4.68
2023-02-19T23:40:10.018Z,4.32
2023-02-19T23:42:37.534Z,3.88
2023-02-19T23:45:04.897Z,4.38
2023-02-19T23:47:31.842Z,4.05
2023-02-19T23:49:58.809Z,4.68
2023-02-19T23:52:25.857Z,4.38
2023-02-19T23:54:53.136Z,4.38
2023-02-19T23:57:20.064Z,4.00
2023-02-19T23:59:49.155Z,4.20
